aviador You're here:

KLXT Decoded Metar

LEES SUMMIT MUNI in MO, USA
Report Time2018-02-19 11:53:00
UTC Time2018-02-19 12:09:20
Flight Rules mvfr MVFR
Wind200° at 21 Gusting to 31 kt
W.Decomp.*RWY 18: 20.0 kt HW 6.5 kt RCW
RWY 11: 0.7 kt HW 21.0 kt RCW
W.Rank200° ranks 2
Current wind is above 200° avg. (9.8)
Visibility9999 m
Phenomena:N/A
Clouds:Overcast 010 Hf
Ceiling1,000 ft
Temp16°C (ISA +3)
Dew Point16°C (100% RH)
AAT10.4°C
QNH1004 hPa
Density Alt1,909 ft
Elevation1,004 ft
Report Wrong Elevation
Raw Report
KLXT 191153Z AUTO 20021G31KT 9SM OVC010 16/16 A2965 RMK AO2 PK WND
20033/1125 CIG 009V015 SLP036 T01610156 10161 20111 55002=

Extra information for KLXT:More info

Metar Taf Metar & Taf Last 4 Metars F.Rules Stats Wind Profile Meteogram Temp Stats Airport Information Weather charts Add Link Nearby VenuesMetar ALERT Operation Metar Decoded Social comments

AIRNAV info for KLXT